createdAt,value
2019-03-25T00:00:17.063Z,1013.50
2019-03-25T00:01:17.050Z,1013.45
2019-03-25T00:02:17.020Z,1013.48
2019-03-25T00:03:17.009Z,1013.44
2019-03-25T00:04:16.995Z,1013.46
2019-03-25T00:05:16.994Z,1013.37
2019-03-25T00:06:17.000Z,1013.51
2019-03-25T00:07:16.964Z,1013.37
2019-03-25T00:08:16.954Z,1013.41
2019-03-25T00:09:16.967Z,1013.39
2019-03-25T00:10:16.934Z,1013.47
2019-03-25T00:11:16.948Z,1013.36
2019-03-25T00:12:16.926Z,1013.35
2019-03-25T00:13:16.906Z,1013.40
2019-03-25T00:14:16.890Z,1013.33
2019-03-25T00:15:16.930Z,1013.40
2019-03-25T00:16:16.868Z,1013.36
2019-03-25T00:17:16.878Z,1013.38
2019-03-25T00:18:16.885Z,1013.35
2019-03-25T00:19:16.843Z,1013.34
2019-03-25T00:20:16.838Z,1013.30
2019-03-25T00:21:16.820Z,1013.33
2019-03-25T00:22:16.830Z,1013.25
2019-03-25T00:23:16.798Z,1013.21
2019-03-25T00:24:16.788Z,1013.31
2019-03-25T00:25:16.813Z,1013.27
2019-03-25T00:26:16.759Z,1013.21
2019-03-25T00:27:16.772Z,1013.20
2019-03-25T00:28:16.747Z,1013.23
2019-03-25T00:29:16.732Z,1013.18
2019-03-25T00:30:16.738Z,1013.20
2019-03-25T00:31:16.759Z,1013.25
2019-03-25T00:32:16.716Z,1013.20
2019-03-25T00:33:16.686Z,1013.17
2019-03-25T00:34:16.672Z,1013.21
2019-03-25T00:35:16.663Z,1013.17
2019-03-25T00:36:16.655Z,1013.18
2019-03-25T00:37:16.660Z,1013.13
2019-03-25T00:38:16.674Z,1013.14
2019-03-25T00:39:16.624Z,1013.09
2019-03-25T00:40:16.617Z,1013.16
2019-03-25T00:41:16.601Z,1013.14
2019-03-25T00:42:16.609Z,1013.07
2019-03-25T00:43:16.598Z,1013.03
2019-03-25T00:44:16.638Z,1013.05
2019-03-25T00:45:16.559Z,1012.96
2019-03-25T00:46:16.551Z,1012.96
2019-03-25T00:47:16.559Z,1012.98
2019-03-25T00:48:16.561Z,1012.92
2019-03-25T00:49:16.515Z,1012.92
2019-03-25T00:50:16.507Z,1012.95
2019-03-25T00:51:16.505Z,1012.93
2019-03-25T00:52:16.497Z,1012.87
2019-03-25T00:53:16.471Z,1012.84
2019-03-25T00:54:16.460Z,1012.76
2019-03-25T00:55:16.471Z,1012.72
2019-03-25T00:56:16.441Z,1012.74
2019-03-25T00:57:16.447Z,1012.70
2019-03-25T00:58:16.443Z,1012.63
2019-03-25T00:59:16.410Z,1012.60
2019-03-25T01:00:16.399Z,1012.61
2019-03-25T01:01:16.391Z,1012.60
2019-03-25T01:02:16.391Z,1012.49
2019-03-25T01:03:16.401Z,1012.46
2019-03-25T01:04:16.349Z,1012.42
2019-03-25T01:05:16.353Z,1012.39
2019-03-25T01:06:16.333Z,1012.33
2019-03-25T01:07:16.338Z,1012.35
2019-03-25T01:08:16.313Z,1012.27
2019-03-25T01:09:16.342Z,1012.31
2019-03-25T01:10:16.293Z,1012.35
2019-03-25T01:11:16.273Z,1012.31
2019-03-25T01:12:16.281Z,1012.35
2019-03-25T01:13:16.262Z,1012.27
2019-03-25T01:14:16.247Z,1012.25
2019-03-25T01:15:16.254Z,1012.24
2019-03-25T01:16:16.221Z,1012.20
2019-03-25T01:17:16.222Z,1012.20
2019-03-25T01:18:17.278Z,1012.10
2019-03-25T01:19:16.191Z,1012.11
2019-03-25T01:20:16.244Z,1012.11
2019-03-25T01:21:16.204Z,1012.02
2019-03-25T01:22:16.174Z,1011.94
2019-03-25T01:23:16.148Z,1011.95
2019-03-25T01:24:16.170Z,1012.02
2019-03-25T01:25:16.130Z,1011.99
2019-03-25T01:26:16.119Z,1011.91
2019-03-25T01:27:16.161Z,1011.88
2019-03-25T01:28:16.108Z,1011.87
2019-03-25T01:29:16.084Z,1011.81
2019-03-25T01:30:16.076Z,1011.83
2019-03-25T01:31:16.058Z,1011.91
2019-03-25T01:32:16.084Z,1011.88
2019-03-25T01:33:16.048Z,1011.80
2019-03-25T01:34:16.026Z,1011.90
2019-03-25T01:35:16.024Z,1011.85
2019-03-25T01:36:16.016Z,1011.88
2019-03-25T01:37:16.000Z,1011.79
2019-03-25T01:38:16.000Z,1011.79
2019-03-25T01:39:15.972Z,1011.80
2019-03-25T01:40:15.990Z,1011.77
2019-03-25T01:41:15.955Z,1011.71
2019-03-25T01:42:15.942Z,1011.71
2019-03-25T01:43:15.947Z,1011.66
2019-03-25T01:44:15.933Z,1011.61
2019-03-25T01:45:15.910Z,1011.55
2019-03-25T01:46:15.904Z,1011.59
2019-03-25T01:47:15.930Z,1011.53
2019-03-25T01:48:15.900Z,1011.53
2019-03-25T01:49:15.866Z,1011.44
2019-03-25T01:50:15.860Z,1011.53
2019-03-25T01:51:15.844Z,1011.47
2019-03-25T01:52:15.835Z,1011.43
2019-03-25T01:53:15.852Z,1011.45
2019-03-25T01:54:15.862Z,1011.46
2019-03-25T01:55:15.805Z,1011.49
2019-03-25T01:56:15.793Z,1011.51
2019-03-25T01:57:15.788Z,1011.42
2019-03-25T01:58:15.788Z,1011.42
2019-03-25T01:59:15.763Z,1011.37
2019-03-25T02:00:15.793Z,1011.35
2019-03-25T02:01:15.746Z,1011.38
2019-03-25T02:02:15.729Z,1011.38
2019-03-25T02:03:15.743Z,1011.34
2019-03-25T02:04:15.712Z,1011.29
2019-03-25T02:05:15.721Z,1011.30
2019-03-25T02:06:15.687Z,1011.31
2019-03-25T02:07:15.675Z,1011.29
2019-03-25T02:08:15.687Z,1011.25
2019-03-25T02:09:15.682Z,1011.21
2019-03-25T02:10:15.641Z,1011.20
2019-03-25T02:11:15.632Z,1011.25
2019-03-25T02:12:15.629Z,1011.12
2019-03-25T02:13:15.627Z,1011.18
2019-03-25T02:14:15.599Z,1011.14
2019-03-25T02:15:15.595Z,1011.13
2019-03-25T02:16:15.587Z,1011.10
2019-03-25T02:17:15.605Z,1011.15
2019-03-25T02:18:15.578Z,1011.11
2019-03-25T02:19:15.543Z,1011.07
2019-03-25T02:20:25.851Z,1011.05
2019-03-25T02:21:16.523Z,1010.99
2019-03-25T02:22:15.519Z,1011.01
2019-03-25T02:23:15.531Z,1010.96
2019-03-25T02:24:15.520Z,1010.94
2019-03-25T02:25:24.754Z,1010.98
2019-03-25T02:26:16.499Z,1010.91
2019-03-25T02:27:15.464Z,1010.98
2019-03-25T02:28:15.448Z,1010.94
2019-03-25T02:29:15.461Z,1010.89
2019-03-25T02:30:15.443Z,1010.90
2019-03-25T02:31:15.420Z,1010.88
2019-03-25T02:32:15.416Z,1010.85
2019-03-25T02:33:15.397Z,1010.91
2019-03-25T02:34:15.407Z,1010.86
2019-03-25T02:35:15.383Z,1010.88
2019-03-25T02:36:15.408Z,1010.87
2019-03-25T02:37:15.378Z,1010.82
2019-03-25T02:38:15.351Z,1010.81
2019-03-25T02:39:15.351Z,1010.74
2019-03-25T02:40:15.328Z,1010.75
2019-03-25T02:41:18.537Z,1010.75
2019-03-25T02:42:15.312Z,1010.69
2019-03-25T02:43:15.307Z,1010.77
2019-03-25T02:44:15.302Z,1010.73
2019-03-25T02:45:15.293Z,1010.70
2019-03-25T02:46:15.259Z,1010.74
2019-03-25T02:47:15.250Z,1010.68
2019-03-25T02:48:15.241Z,1010.70
2019-03-25T02:49:15.239Z,1010.65
2019-03-25T02:50:15.217Z,1010.66
2019-03-25T02:51:15.246Z,1010.62
2019-03-25T02:52:15.205Z,1010.57
2019-03-25T02:53:15.194Z,1010.49
2019-03-25T02:54:15.196Z,1010.57
2019-03-25T02:55:15.189Z,1010.53
2019-03-25T02:56:15.157Z,1010.40
2019-03-25T02:57:15.147Z,1010.45
2019-03-25T02:58:15.137Z,1010.43
2019-03-25T02:59:15.174Z,1010.38
2019-03-25T03:00:15.149Z,1010.39
2019-03-25T03:01:15.101Z,1010.35
2019-03-25T03:02:15.090Z,1010.33
2019-03-25T03:03:15.082Z,1010.29
2019-03-25T03:04:15.078Z,1010.31
2019-03-25T03:05:15.056Z,1010.29
2019-03-25T03:06:15.049Z,1010.32
2019-03-25T03:07:15.060Z,1010.27
2019-03-25T03:08:15.041Z,1010.24
2019-03-25T03:09:15.025Z,1010.27
2019-03-25T03:10:15.012Z,1010.21
2019-03-25T03:11:15.007Z,1010.20
2019-03-25T03:12:15.009Z,1010.17
2019-03-25T03:13:14.968Z,1010.18
2019-03-25T03:14:15.618Z,1010.11
2019-03-25T03:15:14.966Z,1010.16
2019-03-25T03:16:14.938Z,1010.10
2019-03-25T03:17:14.928Z,1010.13
2019-03-25T03:18:14.921Z,1010.04
2019-03-25T03:19:14.925Z,1010.07
2019-03-25T03:20:14.896Z,1010.05
2019-03-25T03:21:14.938Z,1010.08
2019-03-25T03:22:14.875Z,1010.00
2019-03-25T03:23:14.862Z,1010.01
2019-03-25T03:24:14.866Z,1009.99
2019-03-25T03:25:14.844Z,1009.99
2019-03-25T03:26:14.842Z,1009.96
2019-03-25T03:27:14.817Z,1009.93
2019-03-25T03:28:14.836Z,1009.84
2019-03-25T03:29:14.832Z,1009.87
2019-03-25T03:30:14.798Z,1009.77
2019-03-25T03:31:14.783Z,1009.79
2019-03-25T03:32:14.785Z,1009.79
2019-03-25T03:33:14.797Z,1009.72
2019-03-25T03:34:14.787Z,1009.73
2019-03-25T03:35:14.735Z,1009.63
2019-03-25T03:36:14.727Z,1009.64
2019-03-25T03:37:14.715Z,1009.62
2019-03-25T03:38:14.703Z,1009.65
2019-03-25T03:39:14.746Z,1009.62
2019-03-25T03:40:14.688Z,1009.67
2019-03-25T03:41:14.671Z,1009.66
2019-03-25T03:42:14.664Z,1009.63
2019-03-25T03:43:14.664Z,1009.62
2019-03-25T03:44:14.642Z,1009.62
2019-03-25T03:45:14.667Z,1009.58
2019-03-25T03:46:14.616Z,1009.57
2019-03-25T03:47:14.617Z,1009.59
2019-03-25T03:48:14.596Z,1009.53
2019-03-25T03:49:14.581Z,1009.55
2019-03-25T03:50:14.593Z,1009.54
2019-03-25T03:51:14.581Z,1009.42
2019-03-25T03:52:14.551Z,1009.47
2019-03-25T03:53:14.584Z,1009.45
2019-03-25T03:54:14.535Z,1009.41
2019-03-25T03:55:14.538Z,1009.43
2019-03-25T03:56:14.677Z,1009.38
2019-03-25T03:57:14.498Z,1009.39
2019-03-25T03:58:14.487Z,1009.43
2019-03-25T03:59:14.514Z,1009.43
2019-03-25T04:00:14.481Z,1009.40
2019-03-25T04:01:14.463Z,1009.42
2019-03-25T04:02:14.442Z,1009.37
2019-03-25T04:03:14.435Z,1009.41
2019-03-25T04:04:14.428Z,1009.40
2019-03-25T04:05:14.431Z,1009.33
2019-03-25T04:06:14.406Z,1009.36
2019-03-25T04:07:14.457Z,1009.29
2019-03-25T04:08:14.375Z,1009.31
2019-03-25T04:09:14.368Z,1009.25
2019-03-25T04:10:14.393Z,1009.29
2019-03-25T04:11:14.347Z,1009.21
2019-03-25T04:12:14.347Z,1009.17
2019-03-25T04:13:14.333Z,1009.19
2019-03-25T04:14:14.357Z,1009.19
2019-03-25T04:15:14.348Z,1009.15
2019-03-25T04:16:14.311Z,1009.10
2019-03-25T04:17:14.287Z,1009.08
2019-03-25T04:18:14.277Z,1009.05
2019-03-25T04:19:14.263Z,1009.06
2019-03-25T04:20:14.265Z,1009.01
2019-03-25T04:21:14.245Z,1009.02
2019-03-25T04:22:14.259Z,1009.00
2019-03-25T04:23:14.226Z,1008.88
2019-03-25T04:24:14.210Z,1008.86
2019-03-25T04:25:14.218Z,1008.79
2019-03-25T04:26:27.604Z,1008.81
2019-03-25T04:27:15.178Z,1008.75
2019-03-25T04:28:14.199Z,1008.80
2019-03-25T04:29:14.159Z,1008.79
2019-03-25T04:30:14.181Z,1008.85
2019-03-25T04:31:14.133Z,1008.84
2019-03-25T04:32:14.123Z,1008.85
2019-03-25T04:33:14.122Z,1008.83
2019-03-25T04:34:14.098Z,1008.80
2019-03-25T04:35:14.146Z,1008.82
2019-03-25T04:36:14.098Z,1008.73
2019-03-25T04:37:14.077Z,1008.78
2019-03-25T04:38:14.063Z,1008.72
2019-03-25T04:39:14.048Z,1008.73
2019-03-25T04:40:14.042Z,1008.70
2019-03-25T04:41:14.040Z,1008.63
2019-03-25T04:42:14.052Z,1008.63
2019-03-25T04:43:14.007Z,1008.69
2019-03-25T04:44:14.000Z,1008.55
2019-03-25T04:45:13.979Z,1008.59
2019-03-25T04:46:13.994Z,1008.48
2019-03-25T04:47:13.962Z,1008.56
2019-03-25T04:48:13.982Z,1008.50
2019-03-25T04:49:13.939Z,1008.53
2019-03-25T04:50:13.926Z,1008.53
2019-03-25T04:51:13.934Z,1008.51
2019-03-25T04:52:13.907Z,1008.55
2019-03-25T04:53:13.901Z,1008.51
2019-03-25T04:54:13.893Z,1008.52
2019-03-25T04:55:13.984Z,1008.43
2019-03-25T04:56:13.891Z,1008.41
2019-03-25T04:57:13.858Z,1008.37
2019-03-25T04:58:13.880Z,1008.38
2019-03-25T04:59:13.838Z,1008.39
2019-03-25T05:00:13.819Z,1008.37
2019-03-25T05:01:14.537Z,1008.42
2019-03-25T05:02:13.795Z,1008.33
2019-03-25T05:03:13.795Z,1008.34
2019-03-25T05:04:13.775Z,1008.32
2019-03-25T05:05:13.770Z,1008.37
2019-03-25T05:06:13.786Z,1008.39
2019-03-25T05:07:13.747Z,1008.33
2019-03-25T05:08:13.755Z,1008.33
2019-03-25T05:09:13.725Z,1008.35
2019-03-25T05:10:13.719Z,1008.38
2019-03-25T05:11:13.729Z,1008.29
2019-03-25T05:12:13.705Z,1008.24
2019-03-25T05:13:13.679Z,1008.24
2019-03-25T05:14:13.803Z,1008.17
2019-03-25T05:15:13.851Z,1008.19
2019-03-25T05:16:13.658Z,1008.08
2019-03-25T05:17:13.651Z,1008.09
2019-03-25T05:18:13.783Z,1008.08
2019-03-25T05:19:13.685Z,1008.03
2019-03-25T05:20:13.605Z,1008.05
2019-03-25T05:21:13.599Z,1008.10
2019-03-25T05:22:13.617Z,1007.99
2019-03-25T05:23:13.575Z,1007.96
2019-03-25T05:24:13.563Z,1008.03
2019-03-25T05:25:13.610Z,1008.05
2019-03-25T05:26:13.536Z,1008.03
2019-03-25T05:27:13.554Z,1008.07
2019-03-25T05:28:20.431Z,1008.02
2019-03-25T05:29:13.513Z,1008.02
2019-03-25T05:30:13.494Z,1008.02
2019-03-25T05:31:13.490Z,1007.94
2019-03-25T05:32:13.498Z,1007.92
2019-03-25T05:33:13.552Z,1007.91
2019-03-25T05:34:13.553Z,1007.96
2019-03-25T05:35:13.442Z,1007.86
2019-03-25T05:36:13.438Z,1007.85
2019-03-25T05:37:13.424Z,1007.81
2019-03-25T05:38:13.633Z,1007.84
2019-03-25T05:39:13.424Z,1007.89
2019-03-25T05:40:13.407Z,1007.88
2019-03-25T05:41:13.399Z,1007.75
2019-03-25T05:42:13.363Z,1007.78
2019-03-25T05:43:13.367Z,1007.87
2019-03-25T05:44:13.352Z,1008.00
2019-03-25T05:45:13.382Z,1007.93
2019-03-25T05:46:13.328Z,1007.84
2019-03-25T05:47:13.338Z,1007.91
2019-03-25T05:48:13.315Z,1007.91
2019-03-25T05:49:13.292Z,1007.92
2019-03-25T05:50:13.287Z,1007.90
2019-03-25T05:51:13.290Z,1007.93
2019-03-25T05:52:13.286Z,1007.99
2019-03-25T05:53:13.252Z,1008.04
2019-03-25T05:54:13.241Z,1008.02
2019-03-25T05:55:13.250Z,1007.97
2019-03-25T05:56:13.221Z,1007.95
2019-03-25T05:57:13.225Z,1007.98
2019-03-25T05:58:13.198Z,1008.04
2019-03-25T05:59:13.192Z,1007.99
2019-03-25T06:00:13.174Z,1007.88
2019-03-25T06:01:13.210Z,1007.95
2019-03-25T06:02:13.166Z,1007.90
2019-03-25T06:03:13.138Z,1007.96
2019-03-25T06:04:13.130Z,1007.90
2019-03-25T06:05:13.118Z,1007.93
2019-03-25T06:06:13.116Z,1007.88
2019-03-25T06:07:13.143Z,1007.87
2019-03-25T06:08:13.092Z,1007.94
2019-03-25T06:09:13.076Z,1007.88
2019-03-25T06:10:13.074Z,1007.85
2019-03-25T06:11:13.064Z,1007.84
2019-03-25T06:12:13.062Z,1007.80
2019-03-25T06:13:13.028Z,1007.81
2019-03-25T06:14:13.028Z,1007.78
2019-03-25T06:15:13.014Z,1007.76
2019-03-25T06:16:13.054Z,1007.83
2019-03-25T06:17:13.008Z,1007.78
2019-03-25T06:18:12.979Z,1007.72
2019-03-25T06:19:12.968Z,1007.82
2019-03-25T06:20:12.966Z,1007.81
2019-03-25T06:21:12.950Z,1007.80
2019-03-25T06:22:13.008Z,1007.79
2019-03-25T06:23:12.927Z,1007.77
2019-03-25T06:24:12.920Z,1007.79
2019-03-25T06:25:12.940Z,1007.75
2019-03-25T06:26:12.894Z,1007.76
2019-03-25T06:27:14.483Z,1007.73
2019-03-25T06:28:12.877Z,1007.80
2019-03-25T06:29:12.872Z,1007.83
2019-03-25T06:30:12.863Z,1007.81
2019-03-25T06:31:12.841Z,1007.81
2019-03-25T06:32:12.843Z,1007.84
2019-03-25T06:33:13.007Z,1007.82
2019-03-25T06:34:12.833Z,1007.79
2019-03-25T06:35:12.796Z,1007.78
2019-03-25T06:36:12.789Z,1007.74
2019-03-25T06:37:12.788Z,1007.79
2019-03-25T06:38:12.831Z,1007.86
2019-03-25T06:39:12.759Z,1007.87
2019-03-25T06:40:12.741Z,1007.79
2019-03-25T06:41:12.755Z,1007.84
2019-03-25T06:42:12.727Z,1007.78
2019-03-25T06:43:12.734Z,1007.82
2019-03-25T06:44:12.699Z,1007.72
2019-03-25T06:45:12.703Z,1007.78
2019-03-25T06:46:12.689Z,1007.89
2019-03-25T06:47:12.687Z,1007.86
2019-03-25T06:48:12.678Z,1007.84
2019-03-25T06:49:12.651Z,1007.86
2019-03-25T06:50:12.675Z,1007.84
2019-03-25T06:51:12.631Z,1007.88
2019-03-25T06:52:12.631Z,1007.89
2019-03-25T06:53:12.631Z,1007.93
2019-03-25T06:54:12.600Z,1007.90
2019-03-25T06:55:12.621Z,1007.92
2019-03-25T06:56:12.577Z,1007.94
2019-03-25T06:57:12.563Z,1007.92
2019-03-25T06:58:12.577Z,1007.88
2019-03-25T06:59:12.544Z,1007.93
2019-03-25T07:00:12.540Z,1007.90
2019-03-25T07:01:12.534Z,1007.89
2019-03-25T07:02:12.513Z,1007.91
2019-03-25T07:03:12.509Z,1007.86
2019-03-25T07:04:12.483Z,1007.96
2019-03-25T07:05:12.516Z,1007.97
2019-03-25T07:06:12.463Z,1008.01
2019-03-25T07:07:12.458Z,1007.96
2019-03-25T07:08:12.470Z,1007.95
2019-03-25T07:09:12.434Z,1007.94
2019-03-25T07:10:12.425Z,1008.02
2019-03-25T07:11:12.421Z,1007.95
2019-03-25T07:12:12.428Z,1007.95
2019-03-25T07:13:12.391Z,1007.99
2019-03-25T07:14:12.388Z,1007.95
2019-03-25T07:15:12.367Z,1008.03
2019-03-25T07:16:12.404Z,1008.02
2019-03-25T07:17:12.357Z,1007.96
2019-03-25T07:18:12.339Z,1008.02
2019-03-25T07:19:12.376Z,1008.03
2019-03-25T07:20:12.320Z,1008.01
2019-03-25T07:21:12.310Z,1008.03
2019-03-25T07:22:12.301Z,1008.09
2019-03-25T07:23:12.296Z,1008.11
2019-03-25T07:24:12.293Z,1008.07
2019-03-25T07:25:12.262Z,1008.09
2019-03-25T07:26:12.252Z,1008.07
2019-03-25T07:27:12.250Z,1008.11
2019-03-25T07:28:12.262Z,1008.09
2019-03-25T07:29:12.233Z,1008.07
2019-03-25T07:30:12.211Z,1008.12
2019-03-25T07:31:12.197Z,1008.13
2019-03-25T07:32:12.205Z,1008.12
2019-03-25T07:33:12.181Z,1008.20
2019-03-25T07:34:12.184Z,1008.20
2019-03-25T07:35:12.159Z,1008.19
2019-03-25T07:36:12.140Z,1008.16
2019-03-25T07:37:12.155Z,1008.12
2019-03-25T07:38:12.118Z,1008.10
2019-03-25T07:39:12.139Z,1008.18
2019-03-25T07:40:12.106Z,1008.18
2019-03-25T07:41:12.100Z,1008.09
2019-03-25T07:42:12.079Z,1008.07
2019-03-25T07:43:12.064Z,1008.13
2019-03-25T07:44:12.076Z,1008.09
2019-03-25T07:45:12.054Z,1008.11
2019-03-25T07:46:12.037Z,1008.17
2019-03-25T07:47:12.030Z,1008.17
2019-03-25T07:48:12.014Z,1008.17
2019-03-25T07:49:12.015Z,1008.18
2019-03-25T07:50:11.991Z,1008.19
2019-03-25T07:51:11.986Z,1008.08
2019-03-25T07:52:11.973Z,1008.12
2019-03-25T07:53:11.957Z,1008.18
2019-03-25T07:54:12.028Z,1008.21
2019-03-25T07:55:11.942Z,1008.16
2019-03-25T07:56:11.923Z,1008.24
2019-03-25T07:57:11.961Z,1008.18
2019-03-25T07:58:11.921Z,1008.23
2019-03-25T07:59:11.912Z,1008.30
2019-03-25T08:00:13.866Z,1008.37
2019-03-25T08:01:11.897Z,1008.39
2019-03-25T08:02:11.877Z,1008.38
2019-03-25T08:03:11.884Z,1008.26
2019-03-25T08:04:11.883Z,1008.29
2019-03-25T08:05:11.867Z,1008.30
2019-03-25T08:06:11.857Z,1008.26
2019-03-25T08:07:11.807Z,1008.34
2019-03-25T08:08:11.852Z,1008.31
2019-03-25T08:09:11.789Z,1008.25
2019-03-25T08:10:11.809Z,1008.31
2019-03-25T08:11:11.803Z,1008.33
2019-03-25T08:12:11.755Z,1008.30
2019-03-25T08:13:11.849Z,1008.34
2019-03-25T08:14:11.795Z,1008.46
2019-03-25T08:15:11.743Z,1008.44
2019-03-25T08:16:11.800Z,1008.41
2019-03-25T08:17:11.699Z,1008.40
2019-03-25T08:18:11.695Z,1008.42
2019-03-25T08:19:11.687Z,1008.42
2019-03-25T08:20:11.685Z,1008.50
2019-03-25T08:21:11.666Z,1008.44
2019-03-25T08:22:11.644Z,1008.47
2019-03-25T08:23:11.633Z,1008.55
2019-03-25T08:24:11.679Z,1008.59
2019-03-25T08:25:11.639Z,1008.53
2019-03-25T08:26:11.640Z,1008.55
2019-03-25T08:27:11.603Z,1008.49
2019-03-25T08:28:11.594Z,1008.61
2019-03-25T08:29:11.579Z,1008.68
2019-03-25T08:30:11.574Z,1008.60
2019-03-25T08:31:11.580Z,1008.69
2019-03-25T08:32:11.541Z,1008.69
2019-03-25T08:33:11.533Z,1008.63
2019-03-25T08:34:11.545Z,1008.68
2019-03-25T08:35:11.525Z,1008.71
2019-03-25T08:36:11.496Z,1008.70
2019-03-25T08:37:11.492Z,1008.66
2019-03-25T08:38:11.474Z,1008.59
2019-03-25T08:39:11.476Z,1008.59
2019-03-25T08:40:11.483Z,1008.54
2019-03-25T08:41:11.440Z,1008.54
2019-03-25T08:42:11.432Z,1008.49
2019-03-25T08:43:11.420Z,1008.60
2019-03-25T08:44:11.408Z,1008.57
2019-03-25T08:45:11.408Z,1008.53
2019-03-25T08:46:11.408Z,1008.70
2019-03-25T08:47:11.374Z,1008.67
2019-03-25T08:48:11.368Z,1008.70
2019-03-25T08:49:12.115Z,1008.76
2019-03-25T08:50:11.346Z,1008.87
2019-03-25T08:51:11.343Z,1008.78
2019-03-25T08:52:11.338Z,1008.82
2019-03-25T08:53:11.306Z,1008.88
2019-03-25T08:54:11.304Z,1008.92
2019-03-25T08:55:11.286Z,1008.94
2019-03-25T08:56:11.294Z,1008.73
2019-03-25T08:57:11.270Z,1008.73
2019-03-25T08:58:12.462Z,1008.82
2019-03-25T08:59:11.266Z,1008.64
2019-03-25T09:00:11.251Z,1008.75
2019-03-25T09:01:11.241Z,1008.81
2019-03-25T09:02:11.217Z,1008.81
2019-03-25T09:03:11.205Z,1008.86
2019-03-25T09:04:11.193Z,1008.74
2019-03-25T09:05:11.178Z,1008.86
2019-03-25T09:06:11.214Z,1008.85
2019-03-25T09:07:11.163Z,1008.84
2019-03-25T09:08:11.148Z,1008.80
2019-03-25T09:09:11.137Z,1008.82
2019-03-25T09:10:11.130Z,1008.83
2019-03-25T09:11:11.131Z,1008.80
2019-03-25T09:12:11.113Z,1008.86
2019-03-25T09:13:11.111Z,1008.96
2019-03-25T09:14:11.083Z,1008.92
2019-03-25T09:15:11.072Z,1008.99
2019-03-25T09:16:11.073Z,1008.90
2019-03-25T09:17:11.045Z,1008.94
2019-03-25T09:18:11.041Z,1009.06
2019-03-25T09:19:11.055Z,1008.95
2019-03-25T09:20:11.022Z,1009.00
2019-03-25T09:21:11.109Z,1009.13
2019-03-25T09:22:10.994Z,1009.23
2019-03-25T09:23:10.985Z,1009.22
2019-03-25T09:24:10.978Z,1009.22
2019-03-25T09:25:10.971Z,1009.19
2019-03-25T09:26:10.979Z,1009.15
2019-03-25T09:27:10.938Z,1009.04
2019-03-25T09:28:10.926Z,1009.07
2019-03-25T09:29:10.926Z,1008.98
2019-03-25T09:30:10.911Z,1009.06
2019-03-25T09:31:10.925Z,1009.02
2019-03-25T09:32:10.885Z,1009.06
2019-03-25T09:33:10.875Z,1009.01
2019-03-25T09:34:10.861Z,1009.07
2019-03-25T09:35:10.860Z,1009.09
2019-03-25T09:36:10.857Z,1009.04
2019-03-25T09:37:10.854Z,1009.05
2019-03-25T09:38:10.820Z,1009.06
2019-03-25T09:39:10.810Z,1009.10
2019-03-25T09:40:10.802Z,1009.16
2019-03-25T09:41:10.805Z,1009.27
2019-03-25T09:42:10.789Z,1009.35
2019-03-25T09:43:10.802Z,1009.37
2019-03-25T09:44:10.755Z,1009.36
2019-03-25T09:45:10.744Z,1009.36
2019-03-25T09:46:10.752Z,1009.29
2019-03-25T09:47:10.724Z,1009.36
2019-03-25T09:48:10.711Z,1009.32
2019-03-25T09:49:10.704Z,1009.35
2019-03-25T09:50:10.692Z,1009.40
2019-03-25T09:51:10.708Z,1009.29
2019-03-25T09:52:10.669Z,1009.25
2019-03-25T09:53:10.662Z,1009.24
2019-03-25T09:54:10.647Z,1009.17
2019-03-25T09:55:10.631Z,1009.27
2019-03-25T09:56:10.642Z,1009.25
2019-03-25T09:57:10.624Z,1009.25
2019-03-25T09:58:10.654Z,1009.23
2019-03-25T09:59:10.595Z,1009.25
2019-03-25T10:00:10.580Z,1009.22
2019-03-25T10:01:10.591Z,1009.25
2019-03-25T10:02:10.560Z,1009.24
2019-03-25T10:03:10.598Z,1009.19
2019-03-25T10:04:10.540Z,1009.18
2019-03-25T10:05:10.542Z,1009.26
2019-03-25T10:06:10.534Z,1009.25
2019-03-25T10:07:10.504Z,1009.30
2019-03-25T10:08:10.493Z,1009.33
2019-03-25T10:09:10.509Z,1009.37
2019-03-25T10:10:10.467Z,1009.42
2019-03-25T10:11:10.482Z,1009.46
2019-03-25T10:12:10.449Z,1009.52
2019-03-25T10:13:10.438Z,1009.48
2019-03-25T10:14:10.427Z,1009.52
2019-03-25T10:15:10.431Z,1009.54
2019-03-25T10:16:10.472Z,1009.60
2019-03-25T10:17:10.404Z,1009.64
2019-03-25T10:18:10.383Z,1009.66
2019-03-25T10:19:10.508Z,1009.58
2019-03-25T10:20:10.368Z,1009.68
2019-03-25T10:21:10.358Z,1009.67
2019-03-25T10:22:10.368Z,1009.69
2019-03-25T10:23:10.327Z,1009.79
2019-03-25T10:24:10.322Z,1009.76
2019-03-25T10:25:10.312Z,1009.76
2019-03-25T10:26:10.297Z,1009.76
2019-03-25T10:27:10.338Z,1009.77
2019-03-25T10:28:10.275Z,1009.74
2019-03-25T10:29:10.264Z,1009.68
2019-03-25T10:30:10.255Z,1009.66
2019-03-25T10:31:10.246Z,1009.65
2019-03-25T10:32:10.253Z,1009.65
2019-03-25T10:33:10.226Z,1009.59
2019-03-25T10:34:10.219Z,1009.55
2019-03-25T10:35:10.205Z,1009.61
2019-03-25T10:36:10.219Z,1009.66
2019-03-25T10:37:10.185Z,1009.70
2019-03-25T10:38:19.166Z,1009.70
2019-03-25T10:39:11.177Z,1009.69
2019-03-25T10:40:10.196Z,1009.82
2019-03-25T10:41:10.185Z,1009.72
2019-03-25T10:42:10.139Z,1009.69
2019-03-25T10:43:10.116Z,1009.74
2019-03-25T10:44:10.113Z,1009.71
2019-03-25T10:45:10.094Z,1009.80
2019-03-25T10:46:10.081Z,1009.93
2019-03-25T10:47:10.088Z,1009.92
2019-03-25T10:48:10.057Z,1009.99
2019-03-25T10:49:10.077Z,1009.88
2019-03-25T10:50:10.038Z,1009.89
2019-03-25T10:51:10.028Z,1009.85
2019-03-25T10:52:10.026Z,1009.84
2019-03-25T10:53:10.061Z,1009.95
2019-03-25T10:54:10.004Z,1010.00
2019-03-25T10:55:10.020Z,1010.01
2019-03-25T10:56:09.964Z,1009.86
2019-03-25T10:57:09.975Z,1009.94
2019-03-25T10:58:09.944Z,1009.89
2019-03-25T10:59:09.932Z,1009.90
2019-03-25T11:00:09.923Z,1009.87
2019-03-25T11:01:09.926Z,1009.78
2019-03-25T11:02:09.953Z,1009.67
2019-03-25T11:03:09.894Z,1009.54
2019-03-25T11:04:09.880Z,1009.52
2019-03-25T11:05:09.878Z,1009.57
2019-03-25T11:06:09.862Z,1009.53
2019-03-25T11:07:09.908Z,1009.62
2019-03-25T11:08:09.848Z,1009.55
2019-03-25T11:09:09.844Z,1009.61
2019-03-25T11:10:09.817Z,1009.65
2019-03-25T11:11:09.806Z,1009.73
2019-03-25T11:12:09.812Z,1009.72
2019-03-25T11:13:09.780Z,1009.60
2019-03-25T11:14:09.785Z,1009.64
2019-03-25T11:15:09.761Z,1009.56
2019-03-25T11:16:10.414Z,1009.63
2019-03-25T11:17:09.752Z,1009.67
2019-03-25T11:18:09.733Z,1009.78
2019-03-25T11:19:09.717Z,1010.75
2019-03-25T11:20:09.717Z,1010.83
2019-03-25T11:21:09.714Z,1009.90
2019-03-25T11:22:09.708Z,1009.93
2019-03-25T11:23:09.677Z,1009.78
2019-03-25T11:24:09.670Z,1009.69
2019-03-25T11:25:09.658Z,1009.57
2019-03-25T11:26:09.647Z,1009.60
2019-03-25T11:27:09.663Z,1009.58
2019-03-25T11:28:09.621Z,1009.68
2019-03-25T11:29:09.613Z,1009.47
2019-03-25T11:30:09.598Z,1009.43
2019-03-25T11:31:09.585Z,1009.45
2019-03-25T11:32:09.596Z,1009.45
2019-03-25T11:33:09.582Z,1009.50
2019-03-25T11:34:09.557Z,1010.04
2019-03-25T11:35:09.546Z,1009.67
2019-03-25T11:36:09.532Z,1010.71
2019-03-25T11:37:09.539Z,1010.89
2019-03-25T11:38:09.507Z,1010.89
2019-03-25T11:39:09.507Z,1010.90
2019-03-25T11:40:09.487Z,1010.36
2019-03-25T11:41:09.483Z,1010.80
2019-03-25T11:42:10.347Z,1010.98
2019-03-25T11:43:09.455Z,1011.04
2019-03-25T11:44:09.447Z,1010.99
2019-03-25T11:45:09.444Z,1010.81
2019-03-25T11:46:09.428Z,1010.64
2019-03-25T11:47:09.437Z,1010.85
2019-03-25T11:48:09.401Z,1010.86
2019-03-25T11:49:09.444Z,1011.21
2019-03-25T11:50:09.383Z,1010.95
2019-03-25T11:51:09.370Z,1011.06
2019-03-25T11:52:09.401Z,1010.90
2019-03-25T11:53:09.349Z,1011.06
2019-03-25T11:54:09.345Z,1011.18
2019-03-25T11:55:09.333Z,1011.03
2019-03-25T11:56:09.320Z,1011.41
2019-03-25T11:57:09.318Z,1011.56
2019-03-25T11:58:09.293Z,1011.81
2019-03-25T11:59:18.255Z,1011.93
2019-03-25T12:00:10.274Z,1012.03
2019-03-25T12:01:09.269Z,1010.43
2019-03-25T12:02:17.213Z,1009.69
2019-03-25T12:03:10.239Z,1009.90
2019-03-25T12:04:10.573Z,1009.86
2019-03-25T12:05:09.238Z,1010.30